Airfield :
LOGIN :

Register | Disclaimer

   EN    FR    IT 

 










Legend :    VFR   Marginal VFR   IFR   Intensive IFR   Very Intensive IFR
Visi :
Ceiling :
>= 8 km
>= 3000ft
5 to 8 km
1000 to 3000 ft
1500m to 5 km
500 to 1000 ft
800 to 1500m
200 to 500 ft
< 800m
< 200 ft
Symbols :   Thunderstorms  Fog  Heavy snow  Heavy precipitations  Wind > 20 kt
SIGMETs :     Misc.  Thunderstorms  Icing  Turbulence  Mountain Waves  Volcanic Ashes






- Airport Elevation : 3 ft
- IATA code : DHR


EHKD - Den Helder De Kooy

CURRENT METAR :
  • 242325Z AUTO 29009KT 260V320 9999 FEW061 OVC080 13/11 Q1031 BLU

EXPIRED METARs :
  • 242255Z AUTO 30010KT 270V340 9999 FEW058 OVC080 13/11 Q1030 BLU
  • 242225Z AUTO 29011KT 260V320 9999 OVC080 13/11 Q1030 BLU
  • 242155Z AUTO 28010KT 240V320 9999 SCT069 BKN075 OVC081 13/11 Q1030 BLU
  • 242125Z AUTO 30009KT 260V330 9999 -RADZ FEW023 SCT033 BKN038 13/11 Q1030 BLU
  • 242106Z AUTO 30009KT 270V350 9999 FEW027 BKN051 BKN057 13/11 Q1030 BLU
  • 242040Z AUTO 29012KT 250V330 5000 -RA SCT030 BKN047 BKN052 13/11 Q1030 WHT

TAF TAF EHKD
Valid from the 24 at 13:00 until the 25 at 01:00 UTC


241220Z 2413/2501 26015G25KT 9999 BKN030
PROB30
TEMPO 2413/2417 FEW020 SCT025CB BKN030
BECMG 2418/2420 29012KT



MET'MAP, your aeronautical weather chart ! - Copyright ORBIFLY December 2007 - Disclaimer

ORBIFLY MET'MAP TEAM :

Programming & Development : Alexandra Zaïnal
Concept & original design : Baudouin d'Aumeries
Assistance for programming : Marc-Olivier Méhu
Technical & hardware support : Manuel Goepfert

Contact : metmap@orbifly.com




SOURCES & CREDITS :

   NOAA